createdAt,value
2019-03-26T00:00:30.915Z,102331.41
2019-03-26T00:05:34.429Z,102338.30
2019-03-26T00:10:37.932Z,102334.09
2019-03-26T00:15:41.446Z,102332.84
2019-03-26T00:20:44.948Z,102336.83
2019-03-26T00:25:48.460Z,102333.41
2019-03-26T00:30:52.083Z,102338.67
2019-03-26T00:35:55.599Z,102343.48
2019-03-26T00:40:59.099Z,102343.02
2019-03-26T00:46:02.610Z,102346.98
2019-03-26T00:51:06.122Z,102342.75
2019-03-26T00:56:09.625Z,102339.33
2019-03-26T01:01:13.154Z,102352.36
2019-03-26T01:06:17.872Z,102361.02
2019-03-26T01:11:21.443Z,102354.96
2019-03-26T01:16:24.957Z,102365.86
2019-03-26T01:21:28.466Z,102363.19
2019-03-26T01:26:31.966Z,102370.11
2019-03-26T01:31:35.482Z,102369.70
2019-03-26T01:36:38.974Z,102384.10
2019-03-26T01:41:42.495Z,102387.96
2019-03-26T01:46:45.995Z,102378.88
2019-03-26T01:51:49.506Z,102378.42
2019-03-26T01:56:53.022Z,102372.31
2019-03-26T02:01:56.511Z,102374.92
2019-03-26T02:07:00.022Z,102380.97
2019-03-26T02:12:03.722Z,102386.64
2019-03-26T02:17:07.234Z,102384.45
2019-03-26T02:22:10.759Z,102375.76
2019-03-26T02:27:14.270Z,102382.73
2019-03-26T02:32:17.777Z,102386.18
2019-03-26T02:37:21.275Z,102377.04
2019-03-26T02:42:24.801Z,102379.23
2019-03-26T02:47:28.295Z,102366.61
2019-03-26T02:52:31.843Z,102361.41
2019-03-26T02:57:35.349Z,102360.09
2019-03-26T03:02:38.888Z,102345.67
2019-03-26T03:07:42.401Z,102360.10
2019-03-26T03:12:45.903Z,102367.45
2019-03-26T03:17:49.418Z,102370.95
2019-03-26T03:22:52.972Z,102374.44
2019-03-26T03:27:56.665Z,102374.86
2019-03-26T03:33:00.243Z,102380.44
2019-03-26T03:38:03.764Z,102379.18
2019-03-26T03:43:07.537Z,102386.94
2019-03-26T03:48:11.320Z,102382.24
2019-03-26T03:53:18.421Z,102381.74
2019-03-26T03:58:24.826Z,102371.83
2019-03-26T04:03:28.580Z,102390.95
2019-03-26T04:08:32.248Z,102377.41
2019-03-26T04:13:35.936Z,102379.66
2019-03-26T04:18:39.437Z,102374.86
2019-03-26T04:23:42.934Z,102372.25
2019-03-26T04:28:46.443Z,102369.23
2019-03-26T04:33:49.961Z,102372.30
2019-03-26T04:38:53.479Z,102363.60
2019-03-26T04:43:56.989Z,102364.03
2019-03-26T04:49:00.548Z,102358.39
2019-03-26T04:54:04.133Z,102355.37
2019-03-26T04:59:07.638Z,102373.61
2019-03-26T05:04:11.152Z,102374.91
2019-03-26T05:09:14.662Z,102374.86
2019-03-26T05:14:18.173Z,102369.64
2019-03-26T05:19:21.675Z,102361.81
2019-03-26T05:24:25.177Z,102362.70
2019-03-26T05:29:28.703Z,102346.98
2019-03-26T05:34:32.209Z,102346.50
2019-03-26T05:39:35.721Z,102347.39
2019-03-26T05:44:39.225Z,102338.75
2019-03-26T05:49:42.749Z,102342.75
2019-03-26T05:54:46.260Z,102336.30
2019-03-26T05:59:49.766Z,102344.07
2019-03-26T06:04:53.287Z,102343.24
2019-03-26T06:09:56.790Z,102347.62
2019-03-26T06:15:00.357Z,102350.23
2019-03-26T06:20:04.928Z,102354.14
2019-03-26T06:25:08.466Z,102363.26
2019-03-26T06:30:12.422Z,102365.08
2019-03-26T06:35:15.931Z,102376.40
2019-03-26T06:40:19.437Z,102369.45
2019-03-26T06:45:22.951Z,102382.95
2019-03-26T06:50:26.466Z,102377.28
2019-03-26T06:55:29.970Z,102375.17
2019-03-26T07:00:33.922Z,102381.72
2019-03-26T07:05:37.413Z,102386.55
2019-03-26T07:10:40.917Z,102378.72
2019-03-26T07:15:44.439Z,102392.19
2019-03-26T07:20:47.950Z,102392.20
2019-03-26T07:25:51.482Z,102393.09
2019-03-26T07:30:54.983Z,102397.41
2019-03-26T07:35:58.518Z,102391.31
2019-03-26T07:41:02.072Z,102402.66
2019-03-26T07:46:05.585Z,102397.42
2019-03-26T07:51:09.092Z,102396.55
2019-03-26T07:56:12.606Z,102390.91
2019-03-26T08:01:16.105Z,102370.02
2019-03-26T08:06:19.613Z,102385.24
2019-03-26T08:11:23.132Z,102380.01
2019-03-26T08:16:26.645Z,102392.13
2019-03-26T08:21:31.275Z,102391.66
2019-03-26T08:26:35.697Z,102393.32
2019-03-26T08:31:39.852Z,102389.47
2019-03-26T08:36:43.374Z,102396.88
2019-03-26T08:41:46.954Z,102390.97
2019-03-26T08:46:50.483Z,102381.12
2019-03-26T08:51:54.015Z,102376.64
2019-03-26T08:56:57.646Z,102381.81
2019-03-26T09:02:01.182Z,102380.54
2019-03-26T09:07:04.682Z,102384.84
2019-03-26T09:12:08.199Z,102389.84
2019-03-26T09:17:11.709Z,102379.17
2019-03-26T09:22:40.446Z,102379.00
2019-03-26T09:27:44.018Z,102369.15
2019-03-26T09:32:47.612Z,102342.83
2019-03-26T09:37:51.222Z,102357.36
2019-03-26T09:42:54.804Z,102361.16
2019-03-26T09:47:58.419Z,102362.88
2019-03-26T09:53:02.158Z,102356.94
2019-03-26T09:58:05.767Z,102367.84
2019-03-26T10:03:09.372Z,102360.11
2019-03-26T10:08:12.963Z,102360.94
2019-03-26T10:13:16.552Z,102362.23
2019-03-26T10:18:20.139Z,102360.09
2019-03-26T10:23:23.725Z,102352.84
2019-03-26T10:28:27.313Z,102353.05
2019-03-26T10:33:30.893Z,102353.99
2019-03-26T10:38:34.480Z,102345.58
2019-03-26T10:43:38.060Z,102349.38
2019-03-26T10:48:41.637Z,102342.92
2019-03-26T10:53:45.237Z,102331.67
2019-03-26T10:58:48.846Z,102324.17
2019-03-26T11:03:52.437Z,102326.72
2019-03-26T11:08:56.048Z,102322.59
2019-03-26T11:13:59.626Z,102318.08
2019-03-26T11:19:03.210Z,102322.80
2019-03-26T11:24:06.797Z,102321.30
2019-03-26T11:29:10.378Z,102325.57
2019-03-26T11:34:13.991Z,102322.97
2019-03-26T11:39:17.597Z,102321.47
2019-03-26T11:44:21.177Z,102326.50
2019-03-26T11:49:24.769Z,102330.04
2019-03-26T11:54:28.396Z,102316.98
2019-03-26T11:59:31.992Z,102312.25
2019-03-26T12:04:35.578Z,102306.02
2019-03-26T12:09:46.040Z,102317.17
2019-03-26T12:14:44.715Z,102323.77
2019-03-26T12:19:48.312Z,102322.76
2019-03-26T12:24:51.982Z,102329.00
2019-03-26T12:29:55.735Z,102337.33
2019-03-26T12:34:59.327Z,102338.41
2019-03-26T12:40:03.488Z,102344.27
2019-03-26T12:45:07.482Z,102344.39
2019-03-26T12:50:11.451Z,102325.52
2019-03-26T12:55:15.043Z,102337.67
2019-03-26T13:00:24.186Z,102335.89
2019-03-26T13:05:27.789Z,102332.27
2019-03-26T13:10:31.365Z,102345.63
2019-03-26T13:15:34.945Z,102338.34
2019-03-26T13:20:38.542Z,102337.22
2019-03-26T13:25:42.359Z,102333.69
2019-03-26T13:30:45.963Z,102343.72
2019-03-26T13:35:49.560Z,102342.33
2019-03-26T13:40:53.225Z,102341.48
2019-03-26T13:45:56.805Z,102343.84
2019-03-26T13:51:00.387Z,102344.98
2019-03-26T13:56:03.989Z,102349.30
2019-03-26T14:01:07.586Z,102343.06
2019-03-26T14:06:11.169Z,102354.23
2019-03-26T14:11:14.758Z,102352.59
2019-03-26T14:16:18.444Z,102343.11
2019-03-26T14:21:22.054Z,102357.03
2019-03-26T14:26:28.431Z,102352.42
2019-03-26T14:31:34.839Z,102355.45
2019-03-26T14:36:39.673Z,102350.30
2019-03-26T14:41:44.723Z,102348.48
2019-03-26T14:46:49.923Z,102355.80
2019-03-26T14:51:59.873Z,102354.98
2019-03-26T14:57:05.462Z,102341.91
2019-03-26T15:02:10.850Z,102353.55
2019-03-26T15:07:15.775Z,102346.02
2019-03-26T15:12:21.548Z,102349.02
2019-03-26T15:17:27.954Z,102361.11
2019-03-26T15:22:33.095Z,102348.36
2019-03-26T15:27:38.223Z,102356.91
2019-03-26T15:32:43.114Z,102362.02
2019-03-26T15:37:48.270Z,102358.72
2019-03-26T15:42:53.433Z,102363.29
2019-03-26T15:47:58.496Z,102371.63
2019-03-26T15:53:04.594Z,102370.13
2019-03-26T15:58:09.944Z,102373.66
2019-03-26T16:03:15.067Z,102325.59
2019-03-26T16:08:19.465Z,102377.84
2019-03-26T16:13:24.796Z,102380.62
2019-03-26T16:18:29.717Z,102382.91
2019-03-26T16:23:34.238Z,102383.34
2019-03-26T16:28:39.530Z,102385.70
2019-03-26T16:33:43.198Z,102373.09
2019-03-26T16:38:46.793Z,102379.59
2019-03-26T16:43:50.397Z,102389.17
2019-03-26T16:48:54.041Z,102384.16
2019-03-26T16:53:57.648Z,102389.06
2019-03-26T16:59:01.248Z,102391.67
2019-03-26T17:04:04.842Z,102386.98
2019-03-26T17:09:08.574Z,102263.17
2019-03-26T17:14:12.174Z,102400.84
2019-03-26T17:19:15.820Z,102391.27
2019-03-26T17:24:19.486Z,102392.60
2019-03-26T17:29:23.088Z,102405.82
2019-03-26T17:34:26.659Z,102306.41
2019-03-26T17:39:31.617Z,102405.27
2019-03-26T17:44:35.454Z,102412.66
2019-03-26T17:49:39.058Z,102399.17
2019-03-26T17:54:42.677Z,102404.82
2019-03-26T17:59:46.400Z,102408.30
2019-03-26T18:04:50.387Z,102407.47
2019-03-26T18:09:54.839Z,102413.52
2019-03-26T18:14:58.451Z,102423.96
2019-03-26T18:20:02.086Z,102425.25
2019-03-26T18:25:05.690Z,102426.13
2019-03-26T18:30:09.906Z,102432.20
2019-03-26T18:35:13.478Z,102445.30
2019-03-26T18:40:17.088Z,102450.09
2019-03-26T18:45:20.652Z,102457.06
2019-03-26T18:50:24.242Z,102462.30
2019-03-26T18:55:27.845Z,102463.17
2019-03-26T19:00:36.683Z,102478.88
2019-03-26T19:05:40.272Z,102476.25
2019-03-26T19:10:43.889Z,102470.60
2019-03-26T19:15:48.503Z,102481.47
2019-03-26T19:21:01.922Z,102495.41
2019-03-26T19:25:57.809Z,102491.91
2019-03-26T19:31:01.386Z,102490.18
2019-03-26T19:36:04.976Z,102479.73
2019-03-26T19:41:08.558Z,102491.92
2019-03-26T19:46:12.135Z,102501.94
2019-03-26T19:51:15.717Z,102511.08
2019-03-26T19:56:19.319Z,102514.11
2019-03-26T20:01:22.961Z,102511.98
2019-03-26T20:06:26.548Z,102518.51
2019-03-26T20:11:30.136Z,102519.82
2019-03-26T20:16:41.627Z,102528.08
2019-03-26T20:21:39.216Z,102531.13
2019-03-26T20:26:42.798Z,102529.36
2019-03-26T20:31:46.412Z,102539.42
2019-03-26T20:36:50.020Z,102542.03
2019-03-26T20:41:53.601Z,102541.14
2019-03-26T20:46:57.191Z,102545.52
2019-03-26T20:52:00.800Z,102548.98
2019-03-26T20:57:04.392Z,102556.41
2019-03-26T21:02:07.996Z,102562.02
2019-03-26T21:07:11.680Z,102570.74
2019-03-26T21:12:15.368Z,102568.09
2019-03-26T21:17:18.959Z,102559.41
2019-03-26T21:22:22.533Z,102555.05
2019-03-26T21:27:26.143Z,102567.25
2019-03-26T21:32:29.752Z,102538.92
2019-03-26T21:37:33.341Z,102565.06
2019-03-26T21:42:36.975Z,102562.88
2019-03-26T21:47:40.698Z,102559.39
2019-03-26T21:52:44.303Z,102554.59
2019-03-26T21:57:47.891Z,102556.35
2019-03-26T22:02:51.458Z,102560.70
2019-03-26T22:07:55.047Z,102560.70
2019-03-26T22:12:58.624Z,102563.31
2019-03-26T22:18:02.216Z,102566.34
2019-03-26T22:23:05.971Z,102571.57
2019-03-26T22:28:09.811Z,102571.16
2019-03-26T22:33:13.434Z,102569.84
2019-03-26T22:38:17.009Z,102572.45
2019-03-26T22:43:20.600Z,102564.63
2019-03-26T22:48:24.206Z,102575.49
2019-03-26T22:53:27.878Z,102573.31
2019-03-26T22:58:31.474Z,102587.22
2019-03-26T23:03:35.120Z,102583.72
2019-03-26T23:08:38.713Z,102588.98
2019-03-26T23:13:42.297Z,102593.32
2019-03-26T23:18:45.875Z,102586.36
2019-03-26T23:23:49.470Z,102598.97
2019-03-26T23:28:53.107Z,102602.46
2019-03-26T23:33:56.676Z,102599.39
2019-03-26T23:39:00.257Z,102585.87
2019-03-26T23:44:03.841Z,102585.40
2019-03-26T23:49:07.526Z,102591.45
2019-03-26T23:54:11.127Z,102591.87
2019-03-26T23:59:14.690Z,102581.31
